createdAt,value
2022-08-14T00:00:45.664Z,22.16
2022-08-14T00:03:29.570Z,22.14
2022-08-14T00:06:00.644Z,22.12
2022-08-14T00:08:43.718Z,22.11
2022-08-14T00:11:14.262Z,22.09
2022-08-14T00:13:52.551Z,22.09
2022-08-14T00:16:41.198Z,22.07
2022-08-14T00:19:18.872Z,22.06
2022-08-14T00:21:51.824Z,22.04
2022-08-14T00:24:28.120Z,22.02
2022-08-14T00:27:02.047Z,22.00
2022-08-14T00:29:33.142Z,21.98
2022-08-14T00:32:52.038Z,21.97
2022-08-14T00:35:01.720Z,21.95
2022-08-14T00:37:31.992Z,21.93
2022-08-14T00:40:01.742Z,21.91
2022-08-14T00:42:55.484Z,21.89
2022-08-14T00:45:25.214Z,21.87
2022-08-14T00:47:54.373Z,21.86
2022-08-14T00:50:25.933Z,21.84
2022-08-14T00:53:00.251Z,21.83
2022-08-14T00:55:31.165Z,21.81
2022-08-14T00:58:32.469Z,21.79
2022-08-14T01:01:05.441Z,21.76
2022-08-14T01:03:38.314Z,21.75
2022-08-14T01:06:08.929Z,21.73
2022-08-14T01:08:51.135Z,21.71
2022-08-14T01:11:36.000Z,21.68
2022-08-14T01:14:25.453Z,21.67
2022-08-14T01:16:55.749Z,21.66
2022-08-14T01:19:43.905Z,21.66
2022-08-14T01:22:18.995Z,21.64
2022-08-14T01:24:48.537Z,21.63
2022-08-14T01:27:24.397Z,21.61
2022-08-14T01:30:03.265Z,21.58
2022-08-14T01:32:35.338Z,21.56
2022-08-14T01:35:18.770Z,21.55
2022-08-14T01:37:58.068Z,21.54
2022-08-14T01:40:36.658Z,21.51
2022-08-14T01:43:14.545Z,21.48
2022-08-14T01:46:05.932Z,21.46
2022-08-14T01:48:37.234Z,21.44
2022-08-14T01:51:18.856Z,21.43
2022-08-14T01:53:55.873Z,21.43
2022-08-14T01:56:40.181Z,21.41
2022-08-14T01:59:10.246Z,21.42
2022-08-14T02:01:58.088Z,21.41
2022-08-14T02:04:55.800Z,21.41
2022-08-14T02:07:34.594Z,21.40
2022-08-14T02:10:16.057Z,21.39
2022-08-14T02:12:48.902Z,21.39
2022-08-14T02:15:26.487Z,21.38
2022-08-14T02:17:55.703Z,21.37
2022-08-14T02:20:25.018Z,21.36
2022-08-14T02:22:54.855Z,21.35
2022-08-14T02:25:24.320Z,21.34
2022-08-14T02:28:25.300Z,21.32
2022-08-14T02:30:52.954Z,21.30
2022-08-14T02:33:22.777Z,21.29
2022-08-14T02:36:04.975Z,21.28
2022-08-14T02:38:44.479Z,21.28
2022-08-14T02:41:14.008Z,21.27
2022-08-14T02:43:45.980Z,21.26
2022-08-14T02:46:20.306Z,21.24
2022-08-14T02:49:02.692Z,21.22
2022-08-14T02:51:36.632Z,21.21
2022-08-14T02:54:10.094Z,21.19
2022-08-14T02:57:15.833Z,21.19
2022-08-14T02:59:33.606Z,21.17
2022-08-14T03:02:04.391Z,21.14
2022-08-14T03:04:33.697Z,21.10
2022-08-14T03:07:07.206Z,21.07
2022-08-14T03:10:24.770Z,21.03
2022-08-14T03:12:31.582Z,21.00
2022-08-14T03:15:14.411Z,20.98
2022-08-14T03:17:58.247Z,20.95
2022-08-14T03:20:36.134Z,20.95
2022-08-14T03:23:37.914Z,20.93
2022-08-14T03:26:18.185Z,20.90
2022-08-14T03:29:01.136Z,20.90
2022-08-14T03:31:30.730Z,20.92
2022-08-14T03:34:00.557Z,20.89
2022-08-14T03:37:28.388Z,20.89
2022-08-14T03:39:24.145Z,20.88
2022-08-14T03:41:59.935Z,20.86
2022-08-14T03:45:19.341Z,20.84
2022-08-14T03:47:21.394Z,20.83
2022-08-14T03:49:50.426Z,20.82
2022-08-14T03:52:38.939Z,20.82
2022-08-14T03:55:12.643Z,20.82
2022-08-14T03:57:42.702Z,20.83
2022-08-14T04:00:40.545Z,20.84
2022-08-14T04:03:10.386Z,20.85
2022-08-14T04:05:43.454Z,20.86
2022-08-14T04:08:29.829Z,20.87
2022-08-14T04:11:07.688Z,20.88
2022-08-14T04:14:23.615Z,20.90
2022-08-14T04:17:09.963Z,20.92
2022-08-14T04:19:48.073Z,20.96
2022-08-14T04:22:17.193Z,20.99
2022-08-14T04:24:51.649Z,21.03
2022-08-14T04:27:21.999Z,21.07
2022-08-14T04:29:51.708Z,21.12
2022-08-14T04:32:58.357Z,21.17
2022-08-14T04:35:12.433Z,21.24
2022-08-14T04:38:07.696Z,21.32
2022-08-14T04:41:13.082Z,21.42
2022-08-14T04:43:44.817Z,21.52
2022-08-14T04:46:56.696Z,21.60
2022-08-14T04:49:07.897Z,21.70
2022-08-14T04:51:55.469Z,21.78
2022-08-14T04:54:28.732Z,21.90
2022-08-14T04:56:58.012Z,22.01
2022-08-14T04:59:30.078Z,22.12
2022-08-14T05:01:58.595Z,22.24
2022-08-14T05:04:33.903Z,22.33
2022-08-14T05:07:09.242Z,22.47
2022-08-14T05:09:38.338Z,22.60
2022-08-14T05:13:10.567Z,22.72
2022-08-14T05:15:08.858Z,22.86
2022-08-14T05:17:44.520Z,22.98
2022-08-14T05:21:56.330Z,23.11
2022-08-14T05:23:18.875Z,23.23
2022-08-14T05:25:50.115Z,23.35
2022-08-14T05:28:25.369Z,23.46
2022-08-14T05:31:02.130Z,23.54
2022-08-14T05:33:33.326Z,23.64
2022-08-14T05:36:16.660Z,23.73
2022-08-14T05:38:47.781Z,23.81
2022-08-14T05:41:19.275Z,23.90
2022-08-14T05:43:48.760Z,23.99
2022-08-14T05:46:23.119Z,24.07
2022-08-14T05:48:54.957Z,24.16
2022-08-14T05:51:27.647Z,24.25
2022-08-14T05:54:11.479Z,24.34
2022-08-14T05:56:42.508Z,24.44
2022-08-14T05:59:12.472Z,24.52
2022-08-14T06:01:44.349Z,24.60
2022-08-14T06:04:15.745Z,24.69
2022-08-14T06:06:44.870Z,24.77
2022-08-14T06:09:13.725Z,24.84
2022-08-14T06:11:42.362Z,24.88
2022-08-14T06:14:20.567Z,24.92
2022-08-14T06:16:53.080Z,24.96
2022-08-14T06:19:23.138Z,25.01
2022-08-14T06:21:58.276Z,25.07
2022-08-14T06:24:30.588Z,25.13
2022-08-14T06:27:06.155Z,25.21
2022-08-14T06:29:39.413Z,25.27
2022-08-14T06:32:37.474Z,25.32
2022-08-14T06:35:11.363Z,25.39
2022-08-14T06:38:04.462Z,25.40
2022-08-14T06:40:40.199Z,25.42
2022-08-14T06:43:15.693Z,25.46
2022-08-14T06:45:50.217Z,25.49
2022-08-14T06:48:25.441Z,25.54
2022-08-14T06:50:57.975Z,25.57
2022-08-14T06:53:32.903Z,25.58
2022-08-14T06:56:05.067Z,25.63
2022-08-14T06:58:34.032Z,25.68
2022-08-14T07:01:27.553Z,25.74
2022-08-14T07:04:23.197Z,25.78
2022-08-14T07:06:59.125Z,25.80
2022-08-14T07:09:43.759Z,25.80
2022-08-14T07:12:54.681Z,25.80
2022-08-14T07:15:07.621Z,25.82
2022-08-14T07:17:44.942Z,25.83
2022-08-14T07:20:18.868Z,25.85
2022-08-14T07:23:08.536Z,25.88
2022-08-14T07:25:40.351Z,25.93
2022-08-14T07:28:20.228Z,25.96
2022-08-14T07:30:52.133Z,25.97
2022-08-14T07:33:29.325Z,25.98
2022-08-14T07:36:02.372Z,25.99
2022-08-14T07:38:38.020Z,25.99
2022-08-14T07:41:14.812Z,26.01
2022-08-14T07:43:55.483Z,26.03
2022-08-14T07:46:28.117Z,25.98
2022-08-14T07:48:58.498Z,25.74
2022-08-14T07:51:34.170Z,25.49
2022-08-14T07:54:11.337Z,25.27
2022-08-14T07:56:47.582Z,25.11
2022-08-14T07:59:18.825Z,25.00
2022-08-14T08:01:51.703Z,24.92
2022-08-14T08:04:26.947Z,24.91
2022-08-14T08:06:56.334Z,25.14
2022-08-14T08:09:31.805Z,25.39
2022-08-14T08:12:04.886Z,25.62
2022-08-14T08:14:56.166Z,25.80
2022-08-14T08:17:25.252Z,25.97
2022-08-14T08:19:53.629Z,26.08
2022-08-14T08:22:27.247Z,25.94
2022-08-14T08:24:59.530Z,25.73
2022-08-14T08:27:29.750Z,25.59
2022-08-14T08:30:21.594Z,25.51
2022-08-14T08:32:52.605Z,25.47
2022-08-14T08:35:25.910Z,25.45
2022-08-14T08:39:16.878Z,25.42
2022-08-14T08:41:21.451Z,25.43
2022-08-14T08:43:51.175Z,25.46
2022-08-14T08:46:24.069Z,25.50
2022-08-14T08:51:33.587Z,25.57
2022-08-14T09:04:53.451Z,25.76
2022-08-14T09:07:31.387Z,25.81
2022-08-14T09:10:00.869Z,25.87
2022-08-14T09:12:32.183Z,25.93
2022-08-14T09:15:02.534Z,25.98
2022-08-14T09:17:33.403Z,26.03
2022-08-14T09:20:04.290Z,26.09
2022-08-14T09:22:36.168Z,26.16
2022-08-14T09:25:07.627Z,26.22
2022-08-14T09:27:39.655Z,26.30
2022-08-14T09:30:30.761Z,26.43
2022-08-14T09:33:10.836Z,26.57
2022-08-14T09:35:58.037Z,26.68
2022-08-14T09:38:37.301Z,26.81
2022-08-14T09:42:20.152Z,26.92
2022-08-14T09:44:46.381Z,27.05
2022-08-14T09:47:19.243Z,27.16
2022-08-14T09:49:52.265Z,27.27
2022-08-14T09:52:33.981Z,27.40
2022-08-14T09:55:05.121Z,27.55
2022-08-14T09:57:35.831Z,27.70
2022-08-14T10:00:30.256Z,27.85
2022-08-14T10:03:05.056Z,27.99
2022-08-14T10:05:39.214Z,28.07
2022-08-14T10:08:25.499Z,28.11
2022-08-14T10:11:02.397Z,28.16
2022-08-14T10:13:43.211Z,28.27
2022-08-14T10:16:27.497Z,28.43
2022-08-14T10:33:37.270Z,29.44
2022-08-14T10:36:06.290Z,29.54
2022-08-14T10:38:44.091Z,29.64
2022-08-14T10:41:20.288Z,29.74
2022-08-14T10:44:21.631Z,29.84
2022-08-14T10:47:39.596Z,29.96
2022-08-14T10:50:00.426Z,30.04
2022-08-14T10:52:35.918Z,30.09
2022-08-14T10:55:08.567Z,30.17
2022-08-14T10:57:51.570Z,30.30
2022-08-14T11:00:30.072Z,30.48
2022-08-14T11:03:11.121Z,30.70
2022-08-14T11:05:46.225Z,30.87
2022-08-14T11:08:17.847Z,31.04
2022-08-14T11:10:55.876Z,31.20
2022-08-14T11:13:28.724Z,31.40
2022-08-14T11:16:01.323Z,31.63
2022-08-14T11:18:39.879Z,31.85
2022-08-14T11:21:10.595Z,32.04
2022-08-14T11:23:43.639Z,32.20
2022-08-14T11:26:20.932Z,32.33
2022-08-14T11:28:50.542Z,32.45
2022-08-14T11:31:24.002Z,32.50
2022-08-14T11:33:58.133Z,32.54
2022-08-14T11:36:57.163Z,32.58
2022-08-14T11:39:34.482Z,32.72
2022-08-14T11:42:56.921Z,32.89
2022-08-14T11:45:10.947Z,33.10
2022-08-14T11:48:10.597Z,33.27
2022-08-14T11:50:37.749Z,33.40
2022-08-14T11:53:33.373Z,33.49
2022-08-14T11:56:05.451Z,33.58
2022-08-14T11:58:37.088Z,33.74
2022-08-14T12:01:10.023Z,33.92
2022-08-14T12:03:57.067Z,34.02
2022-08-14T12:06:29.165Z,34.10
2022-08-14T12:09:15.168Z,34.17
2022-08-14T12:11:47.446Z,34.28
2022-08-14T12:14:34.931Z,34.41
2022-08-14T12:17:11.983Z,34.52
2022-08-14T12:19:56.867Z,34.61
2022-08-14T12:22:43.718Z,34.68
2022-08-14T12:25:15.069Z,34.79
2022-08-14T12:27:51.744Z,34.97
2022-08-14T12:30:43.874Z,35.19
2022-08-14T12:33:26.907Z,35.42
2022-08-14T12:36:08.081Z,35.66
2022-08-14T12:38:38.772Z,35.89
2022-08-14T12:41:21.733Z,35.99
2022-08-14T12:43:55.704Z,36.05
2022-08-14T12:46:27.569Z,36.19
2022-08-14T12:49:02.564Z,36.36
2022-08-14T12:51:33.802Z,36.57
2022-08-14T12:54:26.474Z,36.79
2022-08-14T12:57:19.528Z,37.07
2022-08-14T12:59:50.683Z,37.25
2022-08-14T13:02:27.169Z,37.24
2022-08-14T13:04:57.099Z,37.11
2022-08-14T13:07:32.471Z,37.06
2022-08-14T13:10:45.883Z,37.09
2022-08-14T13:15:46.458Z,37.31
2022-08-14T13:18:17.252Z,37.36
2022-08-14T13:20:49.478Z,37.32
2022-08-14T13:23:32.101Z,37.32
2022-08-14T13:26:01.375Z,37.41
2022-08-14T13:28:39.696Z,37.59
2022-08-14T13:31:15.883Z,37.80
2022-08-14T13:33:46.079Z,38.00
2022-08-14T13:36:24.013Z,38.11
2022-08-14T13:39:03.922Z,38.20
2022-08-14T13:41:36.395Z,38.34
2022-08-14T13:44:07.977Z,38.45
2022-08-14T13:46:45.930Z,38.55
2022-08-14T13:49:16.891Z,38.63
2022-08-14T13:51:53.292Z,38.70
2022-08-14T13:54:25.224Z,38.77
2022-08-14T13:56:55.378Z,38.81
2022-08-14T13:59:38.124Z,38.81
2022-08-14T14:02:08.654Z,38.78
2022-08-14T14:04:49.538Z,38.72
2022-08-14T14:07:23.551Z,38.60
2022-08-14T14:09:56.414Z,38.53
2022-08-14T14:12:36.527Z,38.40
2022-08-14T14:15:16.868Z,38.21
2022-08-14T14:17:48.023Z,38.05
2022-08-14T14:20:34.183Z,37.87
2022-08-14T14:23:12.043Z,37.73
2022-08-14T14:25:49.192Z,37.68
2022-08-14T14:28:26.402Z,37.74
2022-08-14T14:31:06.693Z,37.82
2022-08-14T14:33:51.624Z,37.85
2022-08-14T14:36:25.226Z,37.85
2022-08-14T14:38:57.682Z,37.90
2022-08-14T14:41:37.600Z,37.98
2022-08-14T14:44:11.338Z,38.03
2022-08-14T14:46:50.260Z,37.99
2022-08-14T14:49:32.037Z,37.97
2022-08-14T14:52:23.483Z,37.96
2022-08-14T14:54:58.549Z,37.94
2022-08-14T14:57:35.333Z,37.87
2022-08-14T15:00:18.428Z,37.76
2022-08-14T15:02:51.581Z,37.61
2022-08-14T15:05:23.327Z,37.51
2022-08-14T15:07:57.136Z,37.46
2022-08-14T15:10:34.232Z,37.43
2022-08-14T15:13:07.180Z,37.36
2022-08-14T15:15:37.804Z,37.29
2022-08-14T15:18:36.950Z,37.24
2022-08-14T15:20:58.153Z,37.18
2022-08-14T15:23:44.440Z,37.15
2022-08-14T15:26:24.355Z,37.10
2022-08-14T15:29:06.408Z,37.06
2022-08-14T15:31:36.620Z,37.05
2022-08-14T15:34:45.697Z,37.05
2022-08-14T15:37:02.541Z,37.05
2022-08-14T15:39:35.678Z,37.03
2022-08-14T15:42:14.737Z,36.97
2022-08-14T15:44:58.400Z,36.87
2022-08-14T15:47:32.403Z,36.77
2022-08-14T15:50:08.684Z,36.69
2022-08-14T15:52:38.518Z,36.58
2022-08-14T15:55:14.818Z,36.50
2022-08-14T15:57:51.370Z,36.40
2022-08-14T16:00:52.675Z,36.28
2022-08-14T16:03:25.327Z,36.16
2022-08-14T16:06:15.712Z,36.06
2022-08-14T16:08:58.869Z,35.95
2022-08-14T16:11:32.717Z,35.87
2022-08-14T16:14:02.009Z,35.78
2022-08-14T16:16:51.724Z,35.69
2022-08-14T16:19:26.734Z,35.57
2022-08-14T16:22:01.324Z,35.47
2022-08-14T16:24:59.790Z,35.36
2022-08-14T16:27:37.273Z,35.24
2022-08-14T16:30:25.261Z,35.12
2022-08-14T16:32:59.415Z,35.00
2022-08-14T16:35:42.430Z,34.90
2022-08-14T16:38:45.583Z,34.81
2022-08-14T16:41:17.441Z,34.70
2022-08-14T16:43:46.987Z,34.59
2022-08-14T16:46:22.485Z,34.52
2022-08-14T16:48:57.593Z,34.47
2022-08-14T16:51:29.601Z,34.43
2022-08-14T16:54:00.835Z,34.37
2022-08-14T16:56:36.234Z,34.30
2022-08-14T16:59:30.430Z,34.23
2022-08-14T17:02:13.712Z,34.15
2022-08-14T17:04:49.268Z,34.01
2022-08-14T17:07:17.833Z,33.86
